Time;durP1;ratioP1;P1;durP2;ratioP2;P2;SDS_P1;SDS_P2;PMS_P1;PMS_P2;Temp;Humidity;BMP_temperature;BMP_pressure;BME280_temperature;BME280_humidity;BME280_pressure;Samples;Min_cycle;Max_cycle;Signal;HPM_P1;HPM_P2
2021/12/23 00:02:26;;;;;;;5.63;3.50;;;12.00;47.10;;;;;;20720873;28;20029;-76
2021/12/23 00:12:27;;;;;;;5.37;3.20;;;12.00;47.20;;;;;;20833713;28;20488;-76
2021/12/23 00:32:47;;;;;;;6.53;3.45;;;11.90;47.20;;;;;;20801256;28;20162;-77
2021/12/23 00:42:47;;;;;;;6.82;3.92;;;12.00;47.40;;;;;;20814515;28;20471;-76
2021/12/23 00:52:55;;;;;;;5.47;3.20;;;11.90;47.30;;;;;;20781225;28;20285;-76
2021/12/23 01:02:58;;;;;;;8.85;4.07;;;11.90;47.40;;;;;;20797515;28;20088;-75
2021/12/23 01:13:02;;;;;;;5.72;3.38;;;11.90;47.30;;;;;;20796013;28;20049;-75
2021/12/23 01:23:04;;;;;;;6.47;3.75;;;11.90;47.40;;;;;;20730028;28;20516;-77
2021/12/23 01:33:06;;;;;;;5.72;3.72;;;11.90;47.40;;;;;;20695953;28;20037;-76
2021/12/23 01:43:06;;;;;;;6.00;3.70;;;11.80;47.40;;;;;;20696218;28;20033;-76
2021/12/23 01:53:07;;;;;;;5.40;3.15;;;11.80;47.50;;;;;;20727704;28;20037;-76
2021/12/23 02:03:07;;;;;;;5.97;3.53;;;11.80;47.50;;;;;;20711135;28;20045;-75
2021/12/23 02:13:08;;;;;;;6.15;3.40;;;11.80;47.60;;;;;;20694468;28;20307;-75
2021/12/23 02:23:09;;;;;;;6.60;3.17;;;11.80;47.70;;;;;;20756049;28;20042;-76
2021/12/23 02:33:10;;;;;;;5.60;3.05;;;11.70;47.80;;;;;;20792893;28;20294;-76
2021/12/23 02:43:17;;;;;;;5.75;3.45;;;11.70;47.80;;;;;;20807219;28;20535;-75
2021/12/23 02:53:17;;;;;;;6.53;3.13;;;11.70;47.80;;;;;;20791525;28;20041;-76
2021/12/23 03:03:19;;;;;;;8.60;4.00;;;11.70;47.90;;;;;;20806276;28;20045;-76
2021/12/23 03:13:19;;;;;;;5.63;3.28;;;11.60;47.90;;;;;;20788961;28;20360;-75
2021/12/23 03:23:20;;;;;;;3.97;3.03;;;11.60;48.00;;;;;;20787723;28;20124;-76
2021/12/23 03:33:20;;;;;;;5.10;2.95;;;11.60;48.10;;;;;;20740039;28;20040;-75
2021/12/23 03:43:21;;;;;;;5.47;3.10;;;11.60;48.10;;;;;;20738432;28;20088;-76
2021/12/23 03:53:22;;;;;;;6.63;3.63;;;11.50;48.10;;;;;;20736511;28;20041;-75
2021/12/23 04:03:22;;;;;;;6.43;3.50;;;11.50;48.10;;;;;;20707023;28;20297;-77
2021/12/23 04:13:23;;;;;;;5.03;3.13;;;11.50;48.20;;;;;;20700067;28;20308;-75
2021/12/23 04:23:25;;;;;;;6.77;3.40;;;11.50;48.30;;;;;;20718034;28;20281;-76
2021/12/23 04:33:26;;;;;;;5.30;3.35;;;11.50;48.30;;;;;;20735462;28;20310;-75
2021/12/23 04:43:27;;;;;;;5.85;2.85;;;11.40;48.40;;;;;;20730062;28;20038;-75
2021/12/23 04:53:27;;;;;;;5.07;2.97;;;11.40;48.50;;;;;;20716119;28;20099;-75
2021/12/23 05:03:28;;;;;;;5.80;2.67;;;11.40;48.60;;;;;;20698830;28;20045;-75
2021/12/23 05:13:28;;;;;;;6.82;3.42;;;11.40;48.60;;;;;;20720659;28;20114;-74
2021/12/23 05:23:29;;;;;;;4.75;2.85;;;12.40;47.10;;;;;;20712489;28;20041;-75
2021/12/23 05:33:30;;;;;;;5.25;3.03;;;13.50;44.80;;;;;;20674390;28;20563;-72
2021/12/23 05:43:32;;;;;;;6.13;3.30;;;14.60;42.70;;;;;;20737210;28;20121;-79
2021/12/23 05:53:32;;;;;;;5.22;3.72;;;15.60;40.80;;;;;;20712935;28;20050;-78
2021/12/23 06:03:34;;;;;;;4.90;3.15;;;16.20;39.50;;;;;;20708154;28;20091;-75
2021/12/23 06:13:35;;;;;;;5.00;3.38;;;16.40;38.70;;;;;;20721939;28;20050;-82
2021/12/23 06:23:36;;;;;;;4.68;3.08;;;16.50;38.40;;;;;;20698659;28;20045;-73
2021/12/23 06:33:36;;;;;;;6.45;2.92;;;16.50;38.20;;;;;;20712170;28;20603;-74
2021/12/23 06:43:37;;;;;;;5.05;3.13;;;16.10;38.60;;;;;;20695477;28;20025;-74
2021/12/23 06:53:38;;;;;;;5.67;3.57;;;15.00;40.20;;;;;;20753027;28;20044;-74
2021/12/23 07:04:14;;;;;;;5.03;2.45;;;14.00;41.80;;;;;;20745372;28;20621;-73
2021/12/23 07:14:05;;;;;;;5.10;3.45;;;13.30;43.20;;;;;;20752583;28;20503;-74
2021/12/23 07:24:06;;;;;;;4.78;2.78;;;12.70;44.60;;;;;;20724926;28;20026;-73
2021/12/23 07:34:07;;;;;;;4.43;2.97;;;12.30;45.50;;;;;;20753740;28;20068;-73
2021/12/23 07:44:09;;;;;;;4.63;2.47;;;12.00;46.20;;;;;;20721882;28;20044;-73
2021/12/23 07:54:10;;;;;;;5.25;3.08;;;11.90;46.80;;;;;;20715765;28;20766;-73
2021/12/23 08:04:11;;;;;;;3.60;2.50;;;11.90;47.80;;;;;;20703354;28;20034;-72
2021/12/23 08:14:11;;;;;;;4.85;3.00;;;11.80;47.40;;;;;;20740958;28;20046;-71
2021/12/23 08:24:12;;;;;;;4.82;2.83;;;11.70;47.50;;;;;;20701561;28;20041;-75
2021/12/23 08:34:13;;;;;;;4.80;3.10;;;11.70;47.80;;;;;;20715343;28;20116;-72
2021/12/23 08:44:13;;;;;;;5.60;2.95;;;11.60;48.00;;;;;;20717343;28;20030;-74
2021/12/23 08:54:16;;;;;;;3.90;2.75;;;11.50;48.10;;;;;;20717601;28;20049;-72
2021/12/23 09:04:17;;;;;;;6.10;2.97;;;11.40;48.40;;;;;;20734469;28;20095;-74
2021/12/23 09:14:17;;;;;;;4.77;2.60;;;11.30;48.70;;;;;;20737306;28;20037;-73
2021/12/23 09:24:19;;;;;;;9.80;2.67;;;11.20;48.90;;;;;;20748656;28;20292;-73
2021/12/23 09:34:21;;;;;;;5.78;2.95;;;11.20;49.10;;;;;;20734951;28;20049;-72
2021/12/23 09:44:21;;;;;;;9.50;4.22;;;11.10;49.30;;;;;;20709321;28;20041;-72
2021/12/23 09:54:22;;;;;;;7.72;3.75;;;11.00;49.30;;;;;;20745083;28;20038;-75
2021/12/23 10:04:23;;;;;;;8.13;3.70;;;11.00;49.50;;;;;;20742938;28;20129;-79
2021/12/23 10:45:36;;;;;;;4.95;2.92;;;10.90;50.20;;;;;;20773536;28;20034;-77
2021/12/23 10:58:01;;;;;;;4.53;3.30;;;10.90;50.40;;;;;;20782671;28;20514;-74
2021/12/23 11:06:12;;;;;;;4.97;3.20;;;10.80;50.70;;;;;;20811407;28;20041;-77
2021/12/23 11:37:08;;;;;;;10.38;6.25;;;13.10;45.80;;;;;;20786490;28;20033;-77
2021/12/23 11:47:13;;;;;;;9.23;5.55;;;14.00;43.60;;;;;;20785404;28;20079;-78
2021/12/23 11:57:27;;;;;;;6.78;4.90;;;15.00;41.90;;;;;;20788735;28;20476;-79
2021/12/23 12:07:28;;;;;;;7.60;4.88;;;15.90;40.30;;;;;;20723154;28;20022;-76
2021/12/23 12:17:33;;;;;;;8.90;4.63;;;16.30;39.30;;;;;;20738230;28;20383;-76
2021/12/23 12:27:33;;;;;;;9.98;5.47;;;16.50;38.80;;;;;;20770301;28;20296;-78
2021/12/23 12:37:43;;;;;;;6.65;4.65;;;16.60;38.40;;;;;;20751040;28;20058;-77
2021/12/23 12:47:49;;;;;;;9.68;4.32;;;16.70;38.20;;;;;;20702098;28;20476;-80
2021/12/23 12:57:55;;;;;;;7.05;3.67;;;16.10;38.90;;;;;;20752269;28;20766;-78
2021/12/23 13:07:56;;;;;;;9.15;4.38;;;15.10;40.50;;;;;;20783667;28;20077;-78
2021/12/23 13:18:06;;;;;;;6.38;4.47;;;14.30;42.10;;;;;;20710101;28;20132;-80
2021/12/23 13:28:07;;;;;;;8.45;4.35;;;13.60;43.20;;;;;;20715822;28;20045;-78
2021/12/23 13:38:09;;;;;;;7.40;4.68;;;13.20;44.40;;;;;;20711191;28;20076;-77
2021/12/23 13:48:10;;;;;;;9.10;4.40;;;12.90;45.00;;;;;;20712663;28;20041;-76
2021/12/23 13:58:11;;;;;;;5.65;3.83;;;12.90;45.50;;;;;;20695560;28;20184;-76
2021/12/23 14:08:11;;;;;;;7.20;4.95;;;12.80;45.80;;;;;;20694568;28;20492;-76
2021/12/23 14:18:26;;;;;;;7.32;4.55;;;12.90;45.90;;;;;;20695184;28;20088;-78
2021/12/23 14:28:43;;;;;;;7.60;4.13;;;13.00;46.10;;;;;;20738682;28;20041;-78
2021/12/23 14:38:46;;;;;;;7.75;4.20;;;12.90;46.20;;;;;;20703978;28;20133;-76
2021/12/23 14:48:57;;;;;;;5.40;3.95;;;12.70;46.40;;;;;;20740798;28;20033;-77
2021/12/23 14:59:08;;;;;;;8.20;4.93;;;12.60;46.70;;;;;;20708615;28;20045;-76
2021/12/23 15:09:21;;;;;;;6.78;4.50;;;12.50;47.00;;;;;;20708422;28;20037;-75
2021/12/23 15:19:35;;;;;;;8.40;5.32;;;12.40;47.40;;;;;;20708377;28;20396;-76
2021/12/23 15:29:44;;;;;;;10.80;4.95;;;12.30;47.60;;;;;;20704418;28;20042;-76
2021/12/23 15:39:44;;;;;;;8.90;4.38;;;12.20;47.90;;;;;;20709353;28;20042;-76
2021/12/23 15:49:45;;;;;;;5.78;3.50;;;12.70;47.30;;;;;;20735599;28;20129;-78
2021/12/23 15:59:51;;;;;;;8.63;4.40;;;13.70;45.50;;;;;;20718212;28;20506;-78
2021/12/23 16:09:53;;;;;;;6.07;3.97;;;14.60;44.00;;;;;;20702672;28;20438;-77
2021/12/23 16:19:55;;;;;;;7.28;4.70;;;15.50;42.20;;;;;;20700689;28;20054;-77
2021/12/23 16:30:19;;;;;;;5.47;3.20;;;16.10;41.00;;;;;;20789059;28;20470;-77
2021/12/23 16:40:23;;;;;;;5.55;3.88;;;16.40;40.30;;;;;;20815136;28;20049;-79
2021/12/23 16:50:23;;;;;;;8.30;5.53;;;16.60;39.80;;;;;;20801235;28;20069;-78
2021/12/23 17:00:24;;;;;;;11.45;6.22;;;16.30;40.00;;;;;;20832919;28;20038;-75
2021/12/23 17:10:25;;;;;;;11.55;5.93;;;15.40;41.20;;;;;;20729514;28;20105;-74
2021/12/23 17:21:47;;;;;;;10.82;6.03;;;14.50;42.80;;;;;;20716795;28;20038;-75
2021/12/23 17:30:48;;;;;;;10.07;5.70;;;13.70;44.20;;;;;;20634757;28;20030;-74
2021/12/23 17:40:48;;;;;;;10.00;5.90;;;13.10;45.50;;;;;;20722516;28;20091;-75
2021/12/23 17:50:49;;;;;;;8.00;5.70;;;12.60;46.40;;;;;;20773746;28;20037;-73
2021/12/23 18:00:51;;;;;;;9.50;5.63;;;12.40;47.10;;;;;;20751730;28;20041;-75
2021/12/23 18:10:52;;;;;;;9.15;5.05;;;12.40;47.60;;;;;;20807426;28;20065;-74
2021/12/23 18:20:53;;;;;;;7.88;5.18;;;12.30;47.70;;;;;;20773156;28;20069;-74
2021/12/23 18:30:57;;;;;;;12.47;6.27;;;12.40;47.90;;;;;;20836614;28;20038;-76
2021/12/23 18:40:57;;;;;;;11.50;5.85;;;12.40;47.80;;;;;;20694488;28;20289;-75
2021/12/23 18:50:58;;;;;;;8.75;5.85;;;12.50;48.50;;;;;;20693120;28;20092;-76
2021/12/23 19:01:05;;;;;;;7.63;4.65;;;12.50;47.80;;;;;;20717634;28;20582;-76
2021/12/23 19:11:07;;;;;;;9.85;5.82;;;12.50;47.80;;;;;;20839448;28;20439;-75
2021/12/23 19:21:08;;;;;;;11.38;5.40;;;12.50;47.80;;;;;;20822998;28;20471;-75
2021/12/23 19:31:08;;;;;;;10.95;5.95;;;12.50;47.90;;;;;;20789979;28;20040;-75
2021/12/23 19:41:09;;;;;;;8.55;5.05;;;12.50;48.00;;;;;;20803819;28;20044;-77
2021/12/23 19:51:10;;;;;;;11.73;7.07;;;12.60;48.10;;;;;;20804466;28;20037;-79
2021/12/23 20:01:10;;;;;;;10.80;6.13;;;12.50;48.20;;;;;;20804390;28;20376;-79
2021/12/23 20:11:12;;;;;;;9.77;6.13;;;12.50;48.70;;;;;;20803231;28;20034;-78
2021/12/23 20:21:13;;;;;;;8.52;5.35;;;12.40;48.40;;;;;;20803262;28;20312;-79
2021/12/23 20:31:15;;;;;;;10.90;6.35;;;12.40;48.50;;;;;;20801703;28;20059;-81
2021/12/23 20:41:15;;;;;;;12.50;7.22;;;12.40;48.50;;;;;;20834056;28;20038;-77
2021/12/23 20:51:16;;;;;;;12.77;6.35;;;12.40;48.70;;;;;;20831430;28;20053;-76
2021/12/23 21:01:17;;;;;;;10.27;6.43;;;12.40;48.80;;;;;;20815258;28;20065;-76
2021/12/23 21:11:19;;;;;;;10.35;6.95;;;12.40;48.90;;;;;;20799044;28;20025;-77
2021/12/23 21:21:19;;;;;;;11.02;6.40;;;12.30;49.00;;;;;;20815061;28;20483;-76
2021/12/23 21:31:23;;;;;;;12.48;6.95;;;12.40;49.20;;;;;;20797502;28;20103;-76
2021/12/23 21:41:30;;;;;;;10.48;6.35;;;12.30;49.20;;;;;;20798627;28;20064;-75
2021/12/23 21:51:34;;;;;;;12.40;7.05;;;12.40;49.30;;;;;;20781087;28;20388;-75
2021/12/23 22:01:34;;;;;;;9.77;5.72;;;12.30;49.50;;;;;;20812709;28;20045;-76
2021/12/23 22:11:35;;;;;;;8.38;5.38;;;12.30;49.60;;;;;;20794662;28;20392;-75
2021/12/23 22:21:36;;;;;;;15.50;7.57;;;12.30;49.70;;;;;;20810625;28;20464;-76
2021/12/23 22:31:36;;;;;;;8.45;5.40;;;12.30;49.80;;;;;;20794067;28;20047;-76
2021/12/23 22:41:37;;;;;;;8.70;5.83;;;12.40;50.00;;;;;;20810421;28;20078;-76
2021/12/23 22:51:38;;;;;;;10.75;7.05;;;12.20;50.00;;;;;;20809632;28;20773;-76
2021/12/23 23:01:38;;;;;;;12.00;6.68;;;12.20;50.20;;;;;;20808929;28;20087;-76
2021/12/23 23:11:43;;;;;;;10.43;6.17;;;12.20;50.30;;;;;;20825359;28;20025;-75
2021/12/23 23:21:45;;;;;;;12.55;5.90;;;12.20;50.50;;;;;;20807789;28;20342;-76
2021/12/23 23:42:04;;;;;;;8.52;5.53;;;12.20;50.70;;;;;;20824836;28;20076;-76
2021/12/23 23:52:05;;;;;;;12.07;5.97;;;12.10;50.90;;;;;;20821791;28;20030;-78
